Accueil
METAR-TAF:

METAR-TAF

Aéroports :

Pointe-Noire, Congo

Aéroport international Agostinho-Neto

latitude: 04-49S, longitude: 011-54E, altitude: 17 m

Observation

Le bulletin a été fait il y a 1 heure et 13 minutes, à 04:00 UTC
Vent 2 kt de sud
Température 23°C
Humidité 94%
Pression 1013 hPa
Visibilité: 6000 m
Quelques nuages à une hauteur de 1000 ft
Ciel couvert à une hauteur de 2000 ft

METAR: FCPP 260400Z 17002KT 6000 FEW010 OVC020 23/22 Q1013 NOSIG

Heure: 06:13 (05:13 UTC)


TAF: absent

Observations et prévisions météorologiques de plus de 4000 aéroports (messages METAR et TAF).

Les stations disponibles sont représentées par des disques jaunes et rouges sur la carte.

Passer la souris dessus pour voir le nom de la station.

Cliquer dessus pour voir les observations et prévisions météorologiques.

Pour changer de carte: cliquez sur les boutons verts avec une croix noire pour zoomer, sur le bouton vert avec un tiret pour effectuer un zoom arrière, ou sur les flèches vertes pour les cartes adjacentes.


METAR-TAF: